Time;durP1;ratioP1;P1;durP2;ratioP2;P2;SDS_P1;SDS_P2;PMS_P1;PMS_P2;Temp;Humidity;BMP_temperature;BMP_pressure;BME280_temperature;BME280_humidity;BME280_pressure;Samples;Min_cycle;Max_cycle;Signal;HPM_P1;HPM_P2
2023/08/30 00:01:52;;;;;;;2.50;2.00;;;;;;;17.24;100.00;98449.06;106830;1273;22520;-55
2023/08/30 00:04:21;;;;;;;4.30;2.40;;;;;;;17.23;100.00;98446.02;106211;1276;99493;-55
2023/08/30 00:06:50;;;;;;;2.30;2.00;;;;;;;17.25;100.00;98441.47;106643;1273;22698;-55
2023/08/30 00:09:19;;;;;;;3.70;1.80;;;;;;;17.26;100.00;98442.64;110008;1276;99282;-55
2023/08/30 00:11:47;;;;;;;4.90;2.00;;;;;;;17.25;100.00;98446.52;109981;1274;99844;-56
2023/08/30 00:14:16;;;;;;;2.10;1.80;;;;;;;17.27;100.00;98444.05;108329;1273;99496;-56
2023/08/30 00:16:44;;;;;;;2.50;2.00;;;;;;;17.30;100.00;98442.72;106351;1275;102078;-55
2023/08/30 00:19:13;;;;;;;2.60;2.20;;;;;;;17.30;100.00;98444.34;106856;1273;23538;-55
2023/08/30 00:21:42;;;;;;;2.40;1.80;;;;;;;17.31;100.00;98437.14;106323;1274;100072;-56
2023/08/30 00:24:11;;;;;;;1.80;1.70;;;;;;;17.36;100.00;98438.84;107186;1274;23886;-55
2023/08/30 00:26:40;;;;;;;3.20;2.30;;;;;;;17.36;100.00;98440.06;106352;1278;99516;-56
2023/08/30 00:29:12;;;;;;;2.10;1.60;;;;;;;17.35;100.00;98439.92;107138;1273;99261;-56
2023/08/30 00:31:40;;;;;;;2.50;1.80;;;;;;;17.38;100.00;98437.18;106356;1273;25239;-55
2023/08/30 00:34:09;;;;;;;2.40;1.50;;;;;;;17.39;100.00;98436.92;106226;1277;103361;-56
2023/08/30 00:36:38;;;;;;;5.80;2.30;;;;;;;17.36;100.00;98434.23;106237;1274;22700;-56
2023/08/30 00:39:08;;;;;;;2.80;1.60;;;;;;;17.36;100.00;98434.73;106416;1275;99382;-56
2023/08/30 00:41:37;;;;;;;4.40;1.90;;;;;;;17.38;100.00;98432.58;107916;1273;99864;-56
2023/08/30 00:44:06;;;;;;;6.10;1.60;;;;;;;17.41;100.00;98422.11;106684;1274;22542;-56
2023/08/30 00:46:35;;;;;;;2.10;1.40;;;;;;;17.44;100.00;98417.13;106234;1274;99321;-56
2023/08/30 00:49:04;;;;;;;2.10;1.60;;;;;;;17.42;100.00;98417.66;108226;1273;22582;-56
2023/08/30 00:51:33;;;;;;;1.60;1.20;;;;;;;17.40;100.00;98417.79;108754;1273;99343;-56
2023/08/30 00:54:02;;;;;;;2.40;1.50;;;;;;;17.34;100.00;98415.90;107094;1273;22536;-56
2023/08/30 00:56:34;;;;;;;1.60;1.50;;;;;;;17.34;100.00;98406.81;106431;1280;99518;-56
2023/08/30 00:59:02;;;;;;;1.90;1.50;;;;;;;17.36;100.00;98400.42;106423;1273;99867;-55
2023/08/30 01:01:32;;;;;;;1.70;1.30;;;;;;;17.40;100.00;98399.02;106761;1274;23993;-56
2023/08/30 01:04:01;;;;;;;0.90;0.80;;;;;;;17.41;100.00;98402.79;106433;1273;100044;-56
2023/08/30 01:06:30;;;;;;;0.90;0.80;;;;;;;17.39;100.00;98401.77;106899;1273;24021;-56
2023/08/30 01:08:58;;;;;;;1.00;0.90;;;;;;;17.34;100.00;98397.44;106611;1273;100209;-56
2023/08/30 01:11:48;;;;;;;1.00;0.80;;;;;;;17.34;100.00;98397.00;106329;1274;99468;-56
2023/08/30 01:14:22;;;;;;;1.00;0.80;;;;;;;17.34;100.00;98401.91;107172;1273;99512;-56
2023/08/30 01:16:51;;;;;;;0.90;0.70;;;;;;;17.34;100.00;98403.70;106585;1275;100403;-56
2023/08/30 01:19:25;;;;;;;1.10;0.80;;;;;;;17.30;100.00;98401.93;107376;1273;25326;-56
2023/08/30 01:22:14;;;;;;;2.10;0.80;;;;;;;17.26;100.00;98404.63;109950;1273;101939;-57
2023/08/30 01:24:58;;;;;;;1.00;0.80;;;;;;;17.22;100.00;98410.39;110134;1273;22185;-57
2023/08/30 01:27:28;;;;;;;1.00;0.80;;;;;;;17.17;100.00;98414.71;110042;1273;99843;-57
2023/08/30 01:29:57;;;;;;;0.40;0.40;;;;;;;17.20;100.00;98416.92;110012;1273;99123;-57
2023/08/30 01:32:28;;;;;;;0.60;0.50;;;;;;;17.22;100.00;98422.70;110043;1273;99302;-57
2023/08/30 01:34:58;;;;;;;1.00;0.60;;;;;;;17.24;100.00;98419.88;108956;1274;99227;-57
2023/08/30 01:37:27;;;;;;;0.90;0.80;;;;;;;17.25;100.00;98415.76;110129;1274;22254;-56
2023/08/30 01:39:57;;;;;;;0.90;0.80;;;;;;;17.23;100.00;98415.75;109950;1273;100052;-57
2023/08/30 01:42:26;;;;;;;0.70;0.70;;;;;;;17.18;100.00;98404.80;110084;1273;22404;-57
2023/08/30 01:44:59;;;;;;;0.80;0.70;;;;;;;17.19;100.00;98407.10;110020;1273;99929;-57
2023/08/30 01:47:29;;;;;;;0.40;0.40;;;;;;;17.22;100.00;98399.12;110065;1273;99875;-57
2023/08/30 01:49:58;;;;;;;0.50;0.30;;;;;;;17.20;100.00;98390.70;110095;1273;22260;-57
2023/08/30 01:52:27;;;;;;;0.50;0.30;;;;;;;17.20;100.00;98385.41;109905;1273;99905;-57
2023/08/30 01:54:58;;;;;;;0.50;0.10;;;;;;;17.25;100.00;98386.77;108805;1274;25350;-57
2023/08/30 01:57:26;;;;;;;0.40;0.30;;;;;;;17.24;100.00;98384.70;108992;1268;99311;-57
2023/08/30 01:59:55;;;;;;;0.40;0.30;;;;;;;17.21;100.00;98382.83;106334;1275;99119;-56
2023/08/30 02:02:24;;;;;;;0.10;0.10;;;;;;;17.26;100.00;98381.34;106431;1273;99567;-56
2023/08/30 02:04:53;;;;;;;0.30;0.20;;;;;;;17.28;100.00;98378.88;106202;1273;100423;-56
2023/08/30 02:07:48;;;;;;;0.20;0.10;;;;;;;17.23;100.00;98383.56;107633;1273;24355;-57
2023/08/30 02:10:37;;;;;;;0.00;0.00;;;;;;;17.17;100.00;98387.12;106326;1283;99980;-56
2023/08/30 02:13:06;;;;;;;0.10;0.10;;;;;;;17.12;100.00;98386.73;107067;1283;22553;-56
2023/08/30 02:15:37;;;;;;;0.10;0.00;;;;;;;17.06;100.00;98383.23;106013;1282;99798;-55
2023/08/30 02:18:07;;;;;;;0.00;0.00;;;;;;;17.01;100.00;98380.01;106472;1283;22846;-56
2023/08/30 02:20:36;;;;;;;0.00;0.00;;;;;;;16.94;100.00;98375.27;107940;1283;99533;-56
2023/08/30 02:23:04;;;;;;;0.00;0.00;;;;;;;16.90;100.00;98376.90;106986;1283;113923;-56
2023/08/30 02:25:42;;;;;;;0.00;0.00;;;;;;;16.84;100.00;98374.17;107103;1282;25536;-56
2023/08/30 02:28:11;;;;;;;0.00;0.00;;;;;;;16.79;100.00;98378.83;105730;1282;100030;-56
2023/08/30 02:30:39;;;;;;;0.00;0.00;;;;;;;16.75;100.00;98372.65;106583;1283;22668;-56
2023/08/30 02:33:08;;;;;;;0.00;0.00;;;;;;;16.69;100.00;98376.14;105833;1280;100018;-55
2023/08/30 02:35:37;;;;;;;0.00;0.00;;;;;;;16.65;100.00;98373.34;107198;1283;100702;-56
2023/08/30 02:38:09;;;;;;;0.00;0.00;;;;;;;16.63;100.00;98373.02;107059;1283;25388;-56
2023/08/30 02:40:39;;;;;;;0.00;0.00;;;;;;;16.61;100.00;98368.91;106452;1282;99371;-56
2023/08/30 02:43:07;;;;;;;0.90;0.00;;;;;;;16.57;100.00;98371.33;106617;1282;25419;-55
2023/08/30 02:45:36;;;;;;;0.10;0.10;;;;;;;16.56;100.00;98368.10;105919;1283;99916;-56
2023/08/30 02:48:06;;;;;;;0.10;0.10;;;;;;;16.54;100.00;98370.02;106431;1280;23876;-57
2023/08/30 02:50:35;;;;;;;0.40;0.10;;;;;;;16.52;100.00;98374.27;107053;1270;99918;-56
2023/08/30 02:53:04;;;;;;;0.20;0.10;;;;;;;16.52;100.00;98379.52;106855;1273;99822;-55
2023/08/30 02:55:33;;;;;;;0.20;0.10;;;;;;;16.50;100.00;98372.31;106479;1274;22530;-55
2023/08/30 02:58:02;;;;;;;0.10;0.10;;;;;;;16.50;100.00;98374.84;106336;1273;99479;-56
2023/08/30 03:00:30;;;;;;;1.30;0.10;;;;;;;16.50;100.00;98377.94;106671;1273;24479;-56
2023/08/30 03:02:59;;;;;;;0.10;0.10;;;;;;;16.49;100.00;98380.52;106350;1274;99531;-56
2023/08/30 03:05:28;;;;;;;0.30;0.10;;;;;;;16.51;100.00;98388.98;106545;1276;99647;-57
2023/08/30 03:07:57;;;;;;;0.10;0.10;;;;;;;16.49;100.00;98391.39;106498;1273;22619;-56
2023/08/30 03:10:26;;;;;;;0.10;0.10;;;;;;;16.51;100.00;98396.46;106608;1273;99372;-57
2023/08/30 03:12:55;;;;;;;0.00;0.00;;;;;;;16.52;100.00;98399.41;106263;1273;25349;-56
2023/08/30 03:15:23;;;;;;;0.20;0.10;;;;;;;16.50;100.00;98403.77;106410;1273;99240;-56
2023/08/30 03:17:52;;;;;;;0.10;0.10;;;;;;;16.49;100.00;98405.28;106939;1273;100054;-56
2023/08/30 03:20:21;;;;;;;0.00;0.00;;;;;;;16.48;100.00;98398.66;106455;1272;99685;-56
2023/08/30 03:22:50;;;;;;;0.10;0.10;;;;;;;16.46;100.00;98401.89;106617;1265;99488;-55
2023/08/30 03:25:19;;;;;;;0.10;0.10;;;;;;;16.44;100.00;98400.52;106837;1273;25483;-56
2023/08/30 03:27:48;;;;;;;0.10;0.10;;;;;;;16.41;100.00;98405.83;106594;1274;99831;-55
2023/08/30 03:30:16;;;;;;;0.20;0.20;;;;;;;16.39;100.00;98405.88;106473;1264;22901;-56
2023/08/30 03:32:45;;;;;;;0.10;0.10;;;;;;;16.40;100.00;98409.99;106388;1270;99957;-57
2023/08/30 03:35:16;;;;;;;0.00;0.00;;;;;;;16.39;100.00;98410.61;106284;1273;99765;-56
2023/08/30 03:37:44;;;;;;;0.20;0.10;;;;;;;16.38;100.00;98412.44;106539;1273;22531;-56
2023/08/30 03:40:15;;;;;;;0.00;0.00;;;;;;;16.38;100.00;98408.94;106513;1273;100493;-56
2023/08/30 03:42:44;;;;;;;0.10;0.10;;;;;;;16.37;100.00;98411.86;106533;1273;22535;-56
2023/08/30 03:45:13;;;;;;;0.10;0.10;;;;;;;16.33;100.00;98408.65;106390;1274;99351;-56
2023/08/30 03:47:42;;;;;;;0.20;0.20;;;;;;;16.32;100.00;98415.73;107544;1274;99883;-56
2023/08/30 03:50:10;;;;;;;0.40;0.30;;;;;;;16.31;100.00;98421.98;110010;1274;100457;-56
2023/08/30 03:52:39;;;;;;;1.20;0.80;;;;;;;16.32;100.00;98423.31;109964;1273;99987;-56
2023/08/30 03:55:08;;;;;;;0.30;0.30;;;;;;;16.33;100.00;98422.03;110049;1276;22364;-56
2023/08/30 03:57:36;;;;;;;0.90;0.70;;;;;;;16.36;100.00;98426.53;109953;1273;99922;-56
2023/08/30 04:00:05;;;;;;;0.40;0.30;;;;;;;16.37;100.00;98426.15;110130;1273;22389;-56
2023/08/30 04:02:34;;;;;;;0.60;0.40;;;;;;;16.38;100.00;98417.75;110006;1273;100093;-56
2023/08/30 04:05:04;;;;;;;0.30;0.20;;;;;;;16.38;100.00;98420.36;110027;1273;99408;-56
2023/08/30 04:07:32;;;;;;;0.30;0.30;;;;;;;16.38;100.00;98415.48;110050;1273;22284;-57
2023/08/30 04:10:02;;;;;;;0.50;0.40;;;;;;;16.33;100.00;98419.88;109922;1272;100247;-57
2023/08/30 04:12:31;;;;;;;0.50;0.40;;;;;;;16.33;100.00;98422.86;110050;1273;22291;-57
2023/08/30 04:15:00;;;;;;;0.70;0.70;;;;;;;16.31;100.00;98427.30;109974;1274;99762;-56
2023/08/30 04:17:29;;;;;;;0.20;0.20;;;;;;;16.27;100.00;98428.70;109944;1273;100147;-56
2023/08/30 04:19:57;;;;;;;0.30;0.10;;;;;;;16.23;100.00;98427.98;110105;1270;22138;-57
2023/08/30 04:22:26;;;;;;;0.20;0.20;;;;;;;16.22;100.00;98428.79;109927;1273;99096;-56
2023/08/30 04:24:55;;;;;;;0.40;0.20;;;;;;;16.23;100.00;98427.80;110104;1273;22594;-55
2023/08/30 04:27:24;;;;;;;0.10;0.10;;;;;;;16.23;100.00;98429.41;109941;1277;99837;-56
2023/08/30 04:29:53;;;;;;;0.30;0.20;;;;;;;16.22;100.00;98427.09;109878;1273;100389;-56
2023/08/30 04:32:21;;;;;;;0.70;0.10;;;;;;;16.19;100.00;98423.35;110028;1274;99728;-56
2023/08/30 04:34:50;;;;;;;0.30;0.10;;;;;;;16.19;100.00;98415.40;109867;1273;99286;-56
2023/08/30 04:37:19;;;;;;;0.00;0.00;;;;;;;16.20;100.00;98415.48;110108;1273;22169;-55
2023/08/30 04:39:48;;;;;;;0.10;0.10;;;;;;;16.19;100.00;98418.95;109955;1274;100408;-56
2023/08/30 04:42:17;;;;;;;0.00;0.00;;;;;;;16.20;100.00;98419.55;110078;1271;22995;-56
2023/08/30 04:44:46;;;;;;;0.20;0.00;;;;;;;16.19;100.00;98423.11;110033;1273;99928;-56
2023/08/30 04:47:18;;;;;;;0.30;0.10;;;;;;;16.19;100.00;98424.50;109942;1273;99929;-56
2023/08/30 04:49:56;;;;;;;0.40;0.10;;;;;;;16.21;100.00;98422.80;110118;1274;22411;-56
2023/08/30 04:52:24;;;;;;;0.20;0.20;;;;;;;16.23;100.00;98418.89;109964;1273;101461;-56
2023/08/30 04:54:53;;;;;;;0.10;0.00;;;;;;;16.27;100.00;98417.86;110074;1273;22274;-57
2023/08/30 04:57:21;;;;;;;0.10;0.10;;;;;;;16.28;100.00;98417.16;110026;1273;99245;-56
2023/08/30 04:59:50;;;;;;;0.20;0.00;;;;;;;16.31;100.00;98411.84;109967;1273;99814;-56
2023/08/30 05:02:19;;;;;;;2.50;0.30;;;;;;;16.37;100.00;98410.44;110032;1274;100513;-56
2023/08/30 05:04:48;;;;;;;0.10;0.10;;;;;;;16.41;100.00;98407.96;110019;1273;99420;-56
2023/08/30 05:07:16;;;;;;;0.10;0.10;;;;;;;16.48;100.00;98406.80;107079;1273;22560;-55
2023/08/30 05:09:45;;;;;;;0.00;0.00;;;;;;;16.54;100.00;98406.55;106228;1273;99407;-56
2023/08/30 05:12:14;;;;;;;0.40;0.10;;;;;;;16.57;100.00;98410.66;108696;1273;22531;-55
2023/08/30 05:14:43;;;;;;;0.00;0.00;;;;;;;16.56;100.00;98410.63;106370;1273;99520;-56
2023/08/30 05:17:12;;;;;;;0.10;0.00;;;;;;;16.56;100.00;98410.20;106775;1273;99918;-56
2023/08/30 05:19:40;;;;;;;0.20;0.00;;;;;;;16.58;100.00;98410.45;107426;1273;22646;-56
2023/08/30 05:22:09;;;;;;;0.00;0.00;;;;;;;16.59;100.00;98413.48;106438;1273;99776;-56
2023/08/30 05:24:37;;;;;;;0.10;0.10;;;;;;;16.62;100.00;98421.83;106370;1273;22558;-57
2023/08/30 05:27:07;;;;;;;0.00;0.00;;;;;;;16.65;100.00;98426.24;106322;1273;99753;-56
2023/08/30 05:29:35;;;;;;;0.60;0.00;;;;;;;16.69;100.00;98427.29;106290;1271;100514;-56
2023/08/30 05:32:05;;;;;;;0.30;0.10;;;;;;;16.72;100.00;98423.02;106479;1273;22550;-56
2023/08/30 05:34:39;;;;;;;0.00;0.00;;;;;;;16.72;100.00;98419.80;106860;1257;99844;-56
2023/08/30 05:37:10;;;;;;;0.00;0.00;;;;;;;16.73;100.00;98419.68;107709;1273;25241;-56
2023/08/30 05:39:39;;;;;;;0.10;0.10;;;;;;;16.75;100.00;98419.17;107725;1273;100025;-57
2023/08/30 05:42:11;;;;;;;0.50;0.10;;;;;;;16.81;100.00;98419.98;106646;1273;24563;-56
2023/08/30 05:44:39;;;;;;;0.80;0.10;;;;;;;16.82;100.00;98418.08;106570;1273;99561;-57
2023/08/30 05:47:14;;;;;;;0.20;0.10;;;;;;;16.82;100.00;98418.80;106311;1269;99646;-57
2023/08/30 05:49:45;;;;;;;0.10;0.10;;;;;;;16.83;100.00;98419.71;106992;1274;22530;-57
2023/08/30 05:52:18;;;;;;;0.20;0.10;;;;;;;16.83;100.00;98422.18;106210;1273;100296;-57
2023/08/30 05:54:46;;;;;;;0.10;0.10;;;;;;;16.81;100.00;98424.16;107898;1275;24657;-57
2023/08/30 05:57:15;;;;;;;0.20;0.10;;;;;;;16.78;100.00;98429.83;106654;1275;99417;-58
2023/08/30 05:59:44;;;;;;;0.40;0.40;;;;;;;16.76;100.00;98432.12;107174;1273;99898;-56
2023/08/30 06:02:12;;;;;;;0.10;0.10;;;;;;;16.81;100.00;98436.22;109859;1273;99523;-56
2023/08/30 06:05:16;;;;;;;0.20;0.10;;;;;;;16.83;100.00;98432.79;106551;1273;401786;-58
2023/08/30 06:07:49;;;;;;;0.50;0.10;;;;;;;16.76;100.00;98433.31;106289;1257;26498;-57
2023/08/30 06:10:18;;;;;;;0.20;0.10;;;;;;;16.82;100.00;98432.80;106251;1273;100396;-56
2023/08/30 06:12:46;;;;;;;0.20;0.10;;;;;;;16.86;100.00;98433.33;106482;1272;24644;-56
2023/08/30 06:15:15;;;;;;;0.00;0.00;;;;;;;16.89;100.00;98436.54;107032;1273;99244;-57
2023/08/30 06:17:46;;;;;;;0.10;0.10;;;;;;;16.88;100.00;98435.43;106919;1273;98965;-57
2023/08/30 06:20:15;;;;;;;0.20;0.10;;;;;;;16.84;100.00;98432.81;106512;1271;99507;-56
2023/08/30 06:22:43;;;;;;;0.40;0.40;;;;;;;16.85;100.00;98433.41;106478;1272;99362;-61
2023/08/30 06:25:13;;;;;;;0.40;0.10;;;;;;;16.85;100.00;98431.85;106761;1273;23939;-55
2023/08/30 06:27:55;;;;;;;0.10;0.10;;;;;;;16.85;100.00;98432.21;106705;1272;99448;-56
2023/08/30 06:30:27;;;;;;;0.10;0.10;;;;;;;16.84;100.00;98427.54;106524;1269;22529;-52
2023/08/30 06:33:05;;;;;;;0.50;0.10;;;;;;;16.77;100.00;98427.29;106550;1271;99639;-56
2023/08/30 06:35:39;;;;;;;0.40;0.20;;;;;;;16.76;100.00;98428.94;106345;1273;99281;-60
2023/08/30 06:38:08;;;;;;;0.10;0.00;;;;;;;16.79;100.00;98432.73;106122;1273;24281;-58
2023/08/30 06:40:42;;;;;;;0.30;0.10;;;;;;;16.82;100.00;98437.43;106129;1260;100112;-57
2023/08/30 06:43:13;;;;;;;0.10;0.10;;;;;;;16.86;100.00;98438.40;106485;1273;22770;-56
2023/08/30 06:45:43;;;;;;;0.40;0.20;;;;;;;16.87;100.00;98440.15;107414;1271;100913;-55
2023/08/30 06:48:12;;;;;;;0.20;0.10;;;;;;;16.83;100.00;98439.73;106996;1273;24839;-55
2023/08/30 06:50:44;;;;;;;0.10;0.10;;;;;;;16.85;100.00;98437.63;106246;1275;99970;-55
2023/08/30 06:53:14;;;;;;;0.70;0.10;;;;;;;16.88;100.00;98440.36;107352;1273;99379;-56
2023/08/30 06:55:43;;;;;;;0.10;0.10;;;;;;;16.93;100.00;98438.11;106742;1273;22545;-57
2023/08/30 06:58:13;;;;;;;0.40;0.10;;;;;;;17.02;100.00;98432.82;107523;1273;99997;-57
2023/08/30 07:00:43;;;;;;;0.20;0.10;;;;;;;17.12;100.00;98422.30;106606;1273;24191;-57
2023/08/30 07:03:11;;;;;;;0.90;0.60;;;;;;;17.23;100.00;98423.14;107651;1273;99296;-56
2023/08/30 07:05:43;;;;;;;0.10;0.10;;;;;;;17.32;100.00;98424.78;107572;1272;99260;-57
2023/08/30 07:08:12;;;;;;;0.40;0.10;;;;;;;17.40;100.00;98423.09;109836;1273;102660;-57
2023/08/30 07:10:41;;;;;;;0.30;0.10;;;;;;;17.42;100.00;98429.19;106402;1273;99597;-55
2023/08/30 07:13:11;;;;;;;0.30;0.00;;;;;;;17.48;100.00;98434.47;108681;1274;22541;-56
2023/08/30 07:15:40;;;;;;;0.50;0.10;;;;;;;17.52;100.00;98437.77;106215;1273;100174;-57
2023/08/30 07:18:09;;;;;;;0.10;0.10;;;;;;;17.52;100.00;98440.39;107413;1263;25301;-56
2023/08/30 07:20:39;;;;;;;0.40;0.30;;;;;;;17.54;100.00;98445.33;107051;1272;99734;-57
2023/08/30 07:23:08;;;;;;;4.40;0.70;;;;;;;17.60;100.00;98451.09;106256;1274;99733;-59
2023/08/30 07:25:38;;;;;;;0.20;0.10;;;;;;;17.66;100.00;98452.55;106447;1273;22772;-56
2023/08/30 07:28:10;;;;;;;0.70;0.30;;;;;;;17.72;100.00;98459.77;109495;1262;100658;-58
2023/08/30 07:31:35;;;;;;;0.10;0.00;;;;;;;17.77;100.00;98468.70;110008;1272;23127;-57
2023/08/30 07:33:52;;;;;;;1.20;0.20;;;;;;;17.80;100.00;98481.38;109498;1273;100211;-57
2023/08/30 07:36:26;;;;;;;0.50;0.10;;;;;;;17.83;100.00;98480.43;108114;1266;22540;-57
2023/08/30 07:39:13;;;;;;;0.30;0.10;;;;;;;17.90;100.00;98485.51;109861;1272;100057;-57
2023/08/30 07:41:42;;;;;;;0.00;0.00;;;;;;;18.00;100.00;98482.23;109911;1274;100034;-57
2023/08/30 07:44:10;;;;;;;0.20;0.20;;;;;;;18.07;100.00;98481.52;110033;1271;98651;-56
2023/08/30 07:46:39;;;;;;;0.20;0.10;;;;;;;18.13;100.00;98488.91;109883;1274;100037;-57
2023/08/30 07:49:07;;;;;;;0.40;0.20;;;;;;;18.17;100.00;98490.84;110089;1273;23065;-56
2023/08/30 07:51:36;;;;;;;0.20;0.10;;;;;;;18.19;100.00;98498.73;109980;1273;99993;-57
2023/08/30 07:54:05;;;;;;;0.50;0.30;;;;;;;18.18;100.00;98500.84;110098;1268;22475;-57
2023/08/30 07:56:33;;;;;;;0.50;0.30;;;;;;;18.16;100.00;98503.29;109871;1273;100471;-57
2023/08/30 07:59:02;;;;;;;0.60;0.20;;;;;;;18.15;100.00;98505.80;109906;1273;100569;-53
2023/08/30 08:01:31;;;;;;;0.50;0.10;;;;;;;18.19;100.00;98502.48;110062;1273;23169;-54
2023/08/30 08:04:00;;;;;;;0.90;0.20;;;;;;;18.24;100.00;98504.55;109961;1273;100055;-53
2023/08/30 08:06:35;;;;;;;1.50;0.20;;;;;;;18.31;100.00;98506.17;110073;1273;22356;-53
2023/08/30 08:09:07;;;;;;;1.10;0.30;;;;;;;18.38;100.00;98506.52;109874;1277;100012;-55
2023/08/30 08:11:36;;;;;;;0.80;0.20;;;;;;;18.45;100.00;98512.48;110027;1273;99997;-54
2023/08/30 08:14:04;;;;;;;1.00;0.70;;;;;;;18.49;100.00;98512.64;110102;1273;22107;-53
2023/08/30 08:16:34;;;;;;;0.60;0.30;;;;;;;18.54;100.00;98514.38;109827;1273;99859;-53
2023/08/30 08:19:02;;;;;;;0.10;0.10;;;;;;;18.56;100.00;98512.50;110005;1274;23458;-54
2023/08/30 08:21:31;;;;;;;0.90;0.30;;;;;;;18.60;100.00;98516.36;109994;1273;99289;-53
2023/08/30 08:24:00;;;;;;;0.10;0.10;;;;;;;18.58;100.00;98514.45;109052;1271;99024;-53
2023/08/30 08:26:28;;;;;;;0.00;0.00;;;;;;;18.52;100.00;98516.17;106392;1272;99842;-52
2023/08/30 08:28:57;;;;;;;0.00;0.00;;;;;;;18.59;100.00;98518.73;106358;1273;99730;-52
2023/08/30 08:31:27;;;;;;;1.80;0.50;;;;;;;18.71;100.00;98520.13;110094;1273;22410;-54
2023/08/30 08:34:10;;;;;;;1.20;0.40;;;;;;;18.84;100.00;98520.88;106509;1267;101218;-53
2023/08/30 08:36:40;;;;;;;0.50;0.10;;;;;;;18.97;100.00;98509.83;106588;1259;23707;-53
2023/08/30 08:39:09;;;;;;;2.40;1.00;;;;;;;19.19;100.00;98500.21;106965;1274;99306;-54
2023/08/30 08:41:42;;;;;;;0.10;0.10;;;;;;;19.27;100.00;98504.09;106418;1274;101310;-50
2023/08/30 08:44:13;;;;;;;0.40;0.20;;;;;;;19.20;100.00;98509.20;107101;1271;99976;-53
2023/08/30 08:46:42;;;;;;;0.20;0.20;;;;;;;19.22;100.00;98514.48;106276;1266;99356;-53
2023/08/30 08:49:16;;;;;;;0.20;0.00;;;;;;;19.23;100.00;98523.61;106426;1272;25335;-53
2023/08/30 08:51:48;;;;;;;0.60;0.20;;;;;;;19.24;100.00;98522.61;106727;1273;99661;-53
2023/08/30 08:54:17;;;;;;;0.30;0.30;;;;;;;19.21;100.00;98530.09;106254;1273;25473;-53
2023/08/30 08:56:46;;;;;;;0.20;0.10;;;;;;;19.22;100.00;98527.35;106546;1273;99493;-53
2023/08/30 08:59:15;;;;;;;0.20;0.10;;;;;;;19.20;100.00;98527.10;106525;1270;99247;-53
2023/08/30 09:01:44;;;;;;;0.30;0.20;;;;;;;19.16;100.00;98530.69;106930;1273;23922;-52
2023/08/30 09:04:13;;;;;;;0.70;0.20;;;;;;;19.02;100.00;98531.33;106402;1273;99931;-55
2023/08/30 09:06:43;;;;;;;0.10;0.10;;;;;;;18.84;100.00;98532.09;106555;1272;22852;-56
2023/08/30 09:09:15;;;;;;;0.10;0.10;;;;;;;18.74;100.00;98529.80;106228;1273;99388;-56
2023/08/30 09:11:43;;;;;;;0.20;0.10;;;;;;;18.70;100.00;98528.88;106673;1273;99477;-56
2023/08/30 09:14:19;;;;;;;2.20;0.20;;;;;;;18.69;100.00;98531.28;106621;1273;99475;-56
2023/08/30 09:17:03;;;;;;;0.20;0.20;;;;;;;18.72;100.00;98538.38;106512;1274;99313;-56
2023/08/30 09:19:31;;;;;;;0.30;0.20;;;;;;;18.84;100.00;98543.36;106536;1271;22540;-56
2023/08/30 09:22:00;;;;;;;0.20;0.20;;;;;;;18.94;100.00;98540.76;106833;1271;99581;-56
2023/08/30 09:24:39;;;;;;;0.60;0.20;;;;;;;19.05;100.00;98541.11;106481;1274;25358;-56
2023/08/30 09:27:08;;;;;;;0.10;0.10;;;;;;;19.18;100.00;98549.71;106365;1273;99484;-54
2023/08/30 09:29:37;;;;;;;0.30;0.30;;;;;;;19.26;100.00;98544.99;106304;1273;99557;-52
2023/08/30 09:32:08;;;;;;;0.30;0.10;;;;;;;19.34;100.00;98542.37;106509;1273;26546;-50
2023/08/30 09:34:45;;;;;;;0.40;0.20;;;;;;;19.44;100.00;98543.60;107115;1274;100337;-51
2023/08/30 09:37:22;;;;;;;0.10;0.10;;;;;;;19.40;100.00;98541.59;106485;1273;24239;-51
2023/08/30 09:39:51;;;;;;;0.30;0.20;;;;;;;19.30;100.00;98541.24;106396;1273;99538;-52
2023/08/30 09:42:21;;;;;;;0.90;0.10;;;;;;;19.23;100.00;98545.98;107359;1273;22526;-52
2023/08/30 09:44:50;;;;;;;1.50;0.20;;;;;;;19.19;100.00;98549.77;108156;1274;99487;-51
2023/08/30 09:47:19;;;;;;;0.20;0.10;;;;;;;19.15;100.00;98544.73;109913;1272;99265;-53
2023/08/30 09:49:51;;;;;;;0.60;0.40;;;;;;;19.06;100.00;98545.82;106420;1275;25439;-52
2023/08/30 09:52:23;;;;;;;0.00;0.00;;;;;;;19.00;100.00;98545.59;106277;1273;100096;-52
2023/08/30 09:54:52;;;;;;;0.70;0.00;;;;;;;19.09;100.00;98539.36;106596;1274;24280;-52
2023/08/30 09:57:22;;;;;;;1.60;0.10;;;;;;;19.18;100.00;98537.73;106991;1274;99796;-52
2023/08/30 10:00:00;;;;;;;0.30;0.20;;;;;;;19.24;100.00;98536.76;106526;1271;99365;-52
2023/08/30 10:02:31;;;;;;;0.20;0.10;;;;;;;19.37;100.00;98541.52;107381;1274;99862;-50
2023/08/30 10:05:01;;;;;;;0.30;0.10;;;;;;;19.58;100.00;98545.30;106633;1270;100475;-48
2023/08/30 10:07:30;;;;;;;0.40;0.10;;;;;;;19.65;100.00;98546.67;107960;1274;24247;-51
2023/08/30 10:10:00;;;;;;;1.10;0.20;;;;;;;19.82;100.00;98543.11;106362;1274;100525;-49
2023/08/30 10:12:32;;;;;;;0.60;0.30;;;;;;;19.96;100.00;98548.00;106406;1274;22544;-50
2023/08/30 10:15:01;;;;;;;0.40;0.30;;;;;;;20.09;100.00;98554.66;106358;1276;99619;-50
2023/08/30 10:17:35;;;;;;;0.90;0.20;;;;;;;20.25;100.00;98555.16;106618;1273;99499;-50
2023/08/30 10:20:08;;;;;;;0.50;0.10;;;;;;;20.35;100.00;98553.05;107176;1266;22538;-50
2023/08/30 10:22:40;;;;;;;0.30;0.10;;;;;;;20.44;100.00;98546.31;106656;1274;99413;-50
2023/08/30 10:25:22;;;;;;;0.20;0.10;;;;;;;20.50;100.00;98547.23;106413;1275;22632;-50
2023/08/30 10:27:52;;;;;;;0.90;0.20;;;;;;;20.47;100.00;98548.64;106189;1273;99643;-50
2023/08/30 10:30:23;;;;;;;0.60;0.10;;;;;;;20.50;100.00;98550.77;106532;1273;22537;-51
2023/08/30 10:32:52;;;;;;;0.70;0.30;;;;;;;20.51;100.00;98560.21;106286;1274;99479;-52
2023/08/30 10:35:21;;;;;;;0.90;0.40;;;;;;;20.52;100.00;98561.58;106610;1274;100272;-51
2023/08/30 10:37:59;;;;;;;0.10;0.10;;;;;;;20.54;100.00;98557.64;108028;1265;22678;-50
2023/08/30 10:40:28;;;;;;;0.10;0.10;;;;;;;20.37;100.00;98560.45;106290;1273;100751;-46
2023/08/30 10:43:00;;;;;;;1.20;0.40;;;;;;;20.18;100.00;98557.33;106258;1274;22551;-49
2023/08/30 10:45:30;;;;;;;1.00;0.30;;;;;;;20.04;100.00;98560.44;108876;1267;99318;-48
2023/08/30 10:47:59;;;;;;;0.40;0.10;;;;;;;19.90;100.00;98563.30;106479;1273;99406;-51
2023/08/30 10:50:30;;;;;;;0.40;0.10;;;;;;;19.72;100.00;98559.31;106844;1273;100027;-49
2023/08/30 10:53:00;;;;;;;0.20;0.20;;;;;;;19.55;100.00;98558.31;106342;1271;100008;-50
2023/08/30 10:55:29;;;;;;;0.50;0.10;;;;;;;19.40;100.00;98561.15;110113;1273;23395;-49
2023/08/30 10:58:02;;;;;;;0.60;0.10;;;;;;;19.31;100.00;98561.90;109840;1268;99616;-53
2023/08/30 11:00:31;;;;;;;0.10;0.10;;;;;;;19.21;100.00;98569.34;110036;1272;23351;-52
2023/08/30 11:03:03;;;;;;;0.10;0.10;;;;;;;19.11;100.00;98570.88;109519;1273;99817;-50
2023/08/30 11:05:33;;;;;;;0.20;0.10;;;;;;;19.14;100.00;98569.73;110028;1271;100041;-53
2023/08/30 11:08:13;;;;;;;0.20;0.20;;;;;;;19.13;100.00;98566.48;110082;1274;22505;-55
2023/08/30 11:10:42;;;;;;;0.60;0.20;;;;;;;19.06;100.00;98562.77;109956;1273;99818;-54
2023/08/30 11:13:15;;;;;;;0.70;0.20;;;;;;;19.11;100.00;98563.42;110018;1273;22183;-50
2023/08/30 11:15:47;;;;;;;0.00;0.00;;;;;;;19.30;100.00;98566.23;109883;1274;100447;-49
2023/08/30 11:18:19;;;;;;;0.50;0.20;;;;;;;19.53;100.00;98562.15;109973;1275;22318;-52
2023/08/30 11:20:48;;;;;;;0.30;0.20;;;;;;;19.67;100.00;98561.92;110085;1273;99957;-53
2023/08/30 11:23:16;;;;;;;0.40;0.10;;;;;;;19.64;100.00;98565.59;110062;1273;99979;-52
2023/08/30 11:25:50;;;;;;;1.00;0.20;;;;;;;19.66;100.00;98567.16;109915;1273;23483;-53
2023/08/30 11:28:23;;;;;;;0.30;0.10;;;;;;;19.71;100.00;98566.48;109974;1262;100019;-55
2023/08/30 11:30:55;;;;;;;0.00;0.00;;;;;;;19.69;100.00;98570.94;109949;1273;22307;-51